Time;durP1;ratioP1;P1;durP2;ratioP2;P2;SDS_P1;SDS_P2;PMS_P1;PMS_P2;Temp;Humidity;BMP_temperature;BMP_pressure;BME280_temperature;BME280_humidity;BME280_pressure;Samples;Min_cycle;Max_cycle;Signal;HPM_P1;HPM_P2
2021/10/03 00:00:34;;;;;;;2.50;1.15;;;;;;;;;;5071487;28;20189;-77
2021/10/03 00:03:00;;;;;;;1.42;1.20;;;;;;;;;;5074712;28;20281;-78
2021/10/03 00:05:25;;;;;;;3.83;1.52;;;;;;;;;;5070418;28;20241;-78
2021/10/03 00:07:52;;;;;;;2.75;1.10;;;;;;;;;;5051157;28;20665;-76
2021/10/03 00:10:18;;;;;;;3.42;1.23;;;;;;;;;;5054671;28;20715;-79
2021/10/03 00:12:44;;;;;;;1.90;1.50;;;;;;;;;;5052316;28;20183;-79
2021/10/03 00:15:10;;;;;;;1.40;1.30;;;;;;;;;;5070852;28;20692;-79
2021/10/03 00:17:35;;;;;;;2.72;1.60;;;;;;;;;;5071724;28;20665;-78
2021/10/03 00:20:00;;;;;;;1.85;1.35;;;;;;;;;;5072167;28;20219;-79
2021/10/03 00:22:26;;;;;;;2.55;1.70;;;;;;;;;;5071734;28;20263;-79
2021/10/03 00:24:52;;;;;;;1.98;1.27;;;;;;;;;;5070700;28;20212;-80
2021/10/03 00:27:17;;;;;;;4.97;1.92;;;;;;;;;;5069886;28;20237;-79
2021/10/03 00:29:42;;;;;;;2.05;1.75;;;;;;;;;;5072545;28;20205;-79
2021/10/03 00:32:07;;;;;;;1.70;1.50;;;;;;;;;;5072709;28;20245;-79
2021/10/03 00:34:32;;;;;;;2.30;1.42;;;;;;;;;;5095122;28;20709;-79
2021/10/03 00:36:58;;;;;;;2.00;1.60;;;;;;;;;;5094796;28;20255;-81
2021/10/03 00:39:23;;;;;;;2.45;1.60;;;;;;;;;;5076270;28;20213;-81
2021/10/03 00:41:48;;;;;;;1.50;1.40;;;;;;;;;;5081723;28;20204;-83
2021/10/03 00:44:14;;;;;;;1.85;1.55;;;;;;;;;;5082363;28;20176;-82
2021/10/03 00:46:39;;;;;;;1.70;1.52;;;;;;;;;;5085712;28;20222;-80
2021/10/03 00:49:05;;;;;;;1.75;1.20;;;;;;;;;;5081147;28;20636;-81
2021/10/03 00:51:31;;;;;;;1.50;1.23;;;;;;;;;;5100324;28;20546;-80
2021/10/03 00:53:56;;;;;;;1.30;1.10;;;;;;;;;;5103773;28;20248;-83
2021/10/03 00:56:21;;;;;;;2.05;1.00;;;;;;;;;;5079432;28;20172;-83
2021/10/03 00:58:46;;;;;;;2.27;1.00;;;;;;;;;;5081483;28;20200;-82
2021/10/03 01:01:12;;;;;;;1.35;0.80;;;;;;;;;;5097730;28;20405;-81
2021/10/03 01:03:37;;;;;;;2.60;0.93;;;;;;;;;;5096689;28;20656;-79
2021/10/03 01:06:03;;;;;;;2.67;0.80;;;;;;;;;;5093827;28;20684;-82
2021/10/03 01:08:28;;;;;;;1.02;0.80;;;;;;;;;;5053647;28;20668;-80
2021/10/03 01:10:54;;;;;;;1.80;1.10;;;;;;;;;;5055524;28;20168;-82
2021/10/03 01:13:19;;;;;;;2.60;1.00;;;;;;;;;;5071372;28;21100;-79
2021/10/03 01:15:45;;;;;;;2.00;1.00;;;;;;;;;;5069371;28;20173;-81
2021/10/03 01:18:12;;;;;;;1.63;1.15;;;;;;;;;;5070205;28;20196;-83
2021/10/03 01:20:37;;;;;;;2.50;1.00;;;;;;;;;;5074254;28;20534;-82
2021/10/03 01:23:05;;;;;;;1.30;0.68;;;;;;;;;;5055684;28;20187;-82
2021/10/03 01:25:35;;;;;;;2.17;0.90;;;;;;;;;;5067820;28;20755;-81
2021/10/03 01:28:01;;;;;;;1.40;0.90;;;;;;;;;;5052616;28;20204;-81
2021/10/03 01:30:26;;;;;;;1.63;0.82;;;;;;;;;;5069906;28;20216;-80
2021/10/03 01:32:51;;;;;;;2.90;1.27;;;;;;;;;;5066438;28;20284;-83
2021/10/03 01:35:17;;;;;;;2.75;0.88;;;;;;;;;;5052588;28;20343;-81
2021/10/03 01:37:42;;;;;;;1.77;0.85;;;;;;;;;;5049857;28;20208;-82
2021/10/03 01:40:08;;;;;;;3.45;0.80;;;;;;;;;;5065110;28;20234;-80
2021/10/03 01:42:34;;;;;;;1.90;0.70;;;;;;;;;;5081142;28;20184;-80
2021/10/03 01:44:59;;;;;;;2.10;1.10;;;;;;;;;;5066320;28;20194;-80
2021/10/03 01:47:24;;;;;;;2.72;1.00;;;;;;;;;;5067872;28;20743;-81
2021/10/03 01:49:49;;;;;;;3.33;0.90;;;;;;;;;;5048471;28;20810;-78
2021/10/03 01:52:15;;;;;;;3.42;0.80;;;;;;;;;;5065247;28;20236;-80
2021/10/03 01:54:40;;;;;;;1.85;0.90;;;;;;;;;;5063426;28;20181;-79
2021/10/03 01:57:06;;;;;;;3.05;0.70;;;;;;;;;;5061987;28;20204;-79
2021/10/03 01:59:31;;;;;;;5.13;1.20;;;;;;;;;;5064039;28;20205;-79
2021/10/03 02:01:58;;;;;;;2.90;0.77;;;;;;;;;;5067383;28;20176;-79
2021/10/03 02:04:25;;;;;;;2.38;1.15;;;;;;;;;;5052195;28;20176;-81
2021/10/03 02:06:51;;;;;;;4.05;1.15;;;;;;;;;;5068354;28;20440;-78
2021/10/03 02:09:18;;;;;;;1.92;0.98;;;;;;;;;;5075722;28;20212;-79
2021/10/03 02:11:47;;;;;;;2.50;1.17;;;;;;;;;;5069643;28;20819;-80
2021/10/03 02:14:14;;;;;;;1.92;1.15;;;;;;;;;;5071775;28;20192;-79
2021/10/03 02:16:39;;;;;;;1.58;1.00;;;;;;;;;;5064342;28;20259;-79
2021/10/03 02:19:05;;;;;;;2.60;1.40;;;;;;;;;;5067347;28;20785;-80
2021/10/03 02:21:30;;;;;;;3.88;1.30;;;;;;;;;;5065329;28;20283;-79
2021/10/03 02:23:56;;;;;;;3.17;1.38;;;;;;;;;;5065833;28;20176;-80
2021/10/03 02:26:21;;;;;;;2.25;1.50;;;;;;;;;;5064368;28;20690;-79
2021/10/03 02:28:46;;;;;;;2.30;1.00;;;;;;;;;;5063641;28;20224;-80
2021/10/03 02:31:12;;;;;;;5.03;0.88;;;;;;;;;;5046323;28;20441;-78
2021/10/03 02:33:39;;;;;;;3.33;0.88;;;;;;;;;;5081376;28;20175;-78
2021/10/03 02:36:04;;;;;;;1.55;1.00;;;;;;;;;;5088639;28;20199;-80
2021/10/03 02:38:29;;;;;;;3.55;0.70;;;;;;;;;;5088662;28;20316;-79
2021/10/03 02:40:56;;;;;;;5.25;1.85;;;;;;;;;;5090530;28;20183;-81
2021/10/03 02:43:21;;;;;;;2.78;0.63;;;;;;;;;;5074614;28;20632;-79
2021/10/03 02:45:48;;;;;;;3.03;1.15;;;;;;;;;;5073880;28;20168;-77
2021/10/03 02:48:14;;;;;;;3.92;0.80;;;;;;;;;;5074044;28;20552;-79
2021/10/03 02:50:39;;;;;;;3.75;0.90;;;;;;;;;;5085089;28;20592;-76
2021/10/03 02:53:09;;;;;;;3.97;1.05;;;;;;;;;;5078550;28;20226;-79
2021/10/03 02:55:34;;;;;;;1.70;0.70;;;;;;;;;;5092549;28;20165;-82
2021/10/03 02:57:59;;;;;;;2.65;0.70;;;;;;;;;;5072277;28;20232;-77
2021/10/03 03:00:24;;;;;;;4.53;0.75;;;;;;;;;;5091500;28;20180;-77
2021/10/03 03:02:50;;;;;;;4.22;0.75;;;;;;;;;;5068830;28;20211;-81
2021/10/03 03:05:15;;;;;;;3.95;0.80;;;;;;;;;;5048574;28;20223;-78
2021/10/03 03:07:40;;;;;;;2.90;1.15;;;;;;;;;;5066173;28;20184;-77
2021/10/03 03:10:06;;;;;;;5.03;0.60;;;;;;;;;;5045069;28;20291;-79
2021/10/03 03:12:31;;;;;;;2.15;0.70;;;;;;;;;;5064158;28;20841;-78
2021/10/03 03:14:57;;;;;;;2.15;0.68;;;;;;;;;;5064141;28;20301;-77
2021/10/03 03:17:22;;;;;;;2.67;0.77;;;;;;;;;;5062821;28;20176;-78
2021/10/03 03:19:47;;;;;;;3.70;0.50;;;;;;;;;;5075258;28;20192;-79
2021/10/03 03:22:13;;;;;;;2.15;0.47;;;;;;;;;;5065494;28;20260;-80
2021/10/03 03:24:39;;;;;;;4.47;0.60;;;;;;;;;;5048354;28;20187;-80
2021/10/03 03:27:05;;;;;;;5.28;0.73;;;;;;;;;;5064586;28;20195;-79
2021/10/03 03:29:30;;;;;;;2.92;0.70;;;;;;;;;;5047775;28;20215;-79
2021/10/03 03:31:55;;;;;;;1.80;0.60;;;;;;;;;;5064574;28;20183;-78
2021/10/03 03:34:21;;;;;;;1.27;0.57;;;;;;;;;;5067727;28;20173;-79
2021/10/03 03:36:46;;;;;;;1.35;0.60;;;;;;;;;;5065925;28;20657;-79
2021/10/03 03:39:11;;;;;;;2.30;1.23;;;;;;;;;;5059370;28;20346;-79
2021/10/03 03:41:37;;;;;;;1.43;0.73;;;;;;;;;;5066393;28;20852;-79
2021/10/03 03:44:02;;;;;;;1.98;0.52;;;;;;;;;;5051165;28;20420;-78
2021/10/03 03:46:27;;;;;;;2.40;0.60;;;;;;;;;;5078354;28;20176;-79
2021/10/03 03:48:52;;;;;;;1.60;0.90;;;;;;;;;;5049589;28;20313;-78
2021/10/03 03:51:17;;;;;;;8.60;2.88;;;;;;;;;;5068448;28;22124;-81
2021/10/03 03:53:43;;;;;;;4.13;1.08;;;;;;;;;;5068726;28;20208;-80
2021/10/03 03:56:08;;;;;;;2.35;0.70;;;;;;;;;;5051402;28;20198;-80
2021/10/03 03:58:34;;;;;;;2.60;0.70;;;;;;;;;;5052670;28;20196;-80
2021/10/03 04:00:59;;;;;;;4.20;0.88;;;;;;;;;;5067449;28;20771;-79
2021/10/03 04:03:24;;;;;;;2.28;1.13;;;;;;;;;;5057307;28;20233;-80
2021/10/03 04:05:49;;;;;;;3.10;1.17;;;;;;;;;;5073373;28;20226;-80
2021/10/03 04:08:14;;;;;;;3.17;0.85;;;;;;;;;;5046192;28;20253;-79
2021/10/03 04:10:40;;;;;;;3.33;1.17;;;;;;;;;;5058314;28;20597;-79
2021/10/03 04:13:06;;;;;;;2.40;0.95;;;;;;;;;;5055387;28;20263;-79
2021/10/03 04:15:31;;;;;;;1.60;0.80;;;;;;;;;;5102028;28;20176;-78
2021/10/03 04:17:56;;;;;;;3.30;0.90;;;;;;;;;;5073865;28;20172;-79
2021/10/03 04:20:21;;;;;;;3.85;0.77;;;;;;;;;;5059450;28;20181;-79
2021/10/03 04:22:47;;;;;;;3.80;0.80;;;;;;;;;;5068430;28;20176;-80
2021/10/03 04:25:12;;;;;;;2.90;0.90;;;;;;;;;;5073507;28;20200;-80
2021/10/03 04:27:37;;;;;;;2.33;0.90;;;;;;;;;;5068697;28;21322;-80
2021/10/03 04:30:03;;;;;;;3.72;0.90;;;;;;;;;;5051375;28;20357;-80
2021/10/03 04:32:28;;;;;;;2.50;0.90;;;;;;;;;;5070103;28;20337;-79
2021/10/03 04:34:53;;;;;;;4.55;1.00;;;;;;;;;;5069895;28;20186;-79
2021/10/03 04:37:18;;;;;;;1.83;0.90;;;;;;;;;;5094059;28;20180;-79
2021/10/03 04:39:44;;;;;;;2.30;1.02;;;;;;;;;;5094219;28;20212;-78
2021/10/03 04:42:09;;;;;;;3.20;0.93;;;;;;;;;;5077940;28;20225;-79
2021/10/03 04:44:34;;;;;;;2.67;0.85;;;;;;;;;;5092884;28;20180;-79
2021/10/03 04:46:59;;;;;;;3.00;0.80;;;;;;;;;;5094829;28;20190;-79
2021/10/03 04:49:24;;;;;;;2.47;0.73;;;;;;;;;;5083536;28;20283;-79
2021/10/03 04:51:50;;;;;;;4.63;0.93;;;;;;;;;;5086694;28;20186;-79
2021/10/03 04:54:15;;;;;;;2.83;0.68;;;;;;;;;;5094730;28;20176;-80
2021/10/03 04:56:40;;;;;;;2.35;0.80;;;;;;;;;;5095525;28;20179;-79
2021/10/03 04:59:05;;;;;;;3.10;1.10;;;;;;;;;;5095335;28;20573;-78
2021/10/03 05:01:31;;;;;;;1.83;0.40;;;;;;;;;;5094394;28;20192;-79
2021/10/03 05:03:56;;;;;;;2.83;0.80;;;;;;;;;;5095906;28;20431;-79
2021/10/03 05:06:21;;;;;;;2.55;0.70;;;;;;;;;;5089536;28;20960;-79
2021/10/03 05:08:46;;;;;;;3.13;0.70;;;;;;;;;;5053372;28;20211;-78
2021/10/03 05:11:12;;;;;;;3.33;0.73;;;;;;;;;;5067589;28;20772;-81
2021/10/03 05:13:37;;;;;;;2.30;0.82;;;;;;;;;;5067302;28;20172;-80
2021/10/03 05:16:02;;;;;;;3.35;1.88;;;;;;;;;;5069228;28;20713;-81
2021/10/03 05:18:27;;;;;;;2.72;1.23;;;;;;;;;;5068050;28;20208;-81
2021/10/03 05:20:52;;;;;;;2.65;1.08;;;;;;;;;;5055756;28;20681;-79
2021/10/03 05:23:18;;;;;;;1.70;0.95;;;;;;;;;;5073606;28;20180;-79
2021/10/03 05:25:43;;;;;;;6.35;1.20;;;;;;;;;;5050599;28;20192;-78
2021/10/03 05:28:09;;;;;;;3.28;1.17;;;;;;;;;;5066422;28;20207;-79
2021/10/03 05:30:34;;;;;;;3.38;0.77;;;;;;;;;;5062278;28;20204;-80
2021/10/03 05:32:59;;;;;;;3.78;0.80;;;;;;;;;;5072219;28;20854;-81
2021/10/03 05:35:24;;;;;;;9.02;2.47;;;;;;;;;;5066958;28;20188;-79
2021/10/03 05:37:50;;;;;;;4.43;1.10;;;;;;;;;;5065257;28;20180;-79
2021/10/03 05:40:15;;;;;;;1.77;0.85;;;;;;;;;;5067674;28;20215;-80
2021/10/03 05:42:41;;;;;;;1.92;1.00;;;;;;;;;;5072712;28;20179;-80
2021/10/03 05:45:06;;;;;;;4.20;1.10;;;;;;;;;;5051354;28;20200;-81
2021/10/03 05:47:31;;;;;;;4.07;1.10;;;;;;;;;;5068478;28;20944;-80
2021/10/03 05:49:56;;;;;;;2.13;0.90;;;;;;;;;;5064332;28;20227;-80
2021/10/03 05:52:22;;;;;;;3.00;1.10;;;;;;;;;;5052531;28;20173;-80
2021/10/03 05:54:48;;;;;;;5.22;1.20;;;;;;;;;;5052682;28;20176;-80
2021/10/03 05:57:13;;;;;;;4.90;0.95;;;;;;;;;;5063114;28;20184;-81
2021/10/03 05:59:38;;;;;;;3.75;1.10;;;;;;;;;;5062546;28;20254;-80
2021/10/03 06:02:03;;;;;;;6.63;1.75;;;;;;;;;;5048859;28;20189;-80
2021/10/03 06:04:28;;;;;;;4.40;1.30;;;;;;;;;;5069607;28;21532;-81
2021/10/03 06:06:54;;;;;;;4.90;1.30;;;;;;;;;;5070345;28;20185;-80
2021/10/03 06:09:19;;;;;;;3.30;1.25;;;;;;;;;;5056078;28;21148;-80
2021/10/03 06:11:44;;;;;;;2.67;1.00;;;;;;;;;;5052610;28;20275;-79
2021/10/03 06:14:09;;;;;;;4.53;1.20;;;;;;;;;;5068256;28;20781;-80
2021/10/03 06:16:35;;;;;;;5.32;1.13;;;;;;;;;;5074077;28;20183;-79
2021/10/03 06:19:00;;;;;;;10.10;1.88;;;;;;;;;;5059553;28;21446;-81
2021/10/03 06:21:26;;;;;;;3.20;1.10;;;;;;;;;;5083520;28;20181;-81
2021/10/03 06:23:52;;;;;;;3.35;1.65;;;;;;;;;;5060493;28;20560;-79
2021/10/03 06:26:18;;;;;;;5.30;1.30;;;;;;;;;;5071664;28;20233;-80
2021/10/03 06:28:43;;;;;;;5.25;1.00;;;;;;;;;;5071968;28;20230;-77
2021/10/03 06:31:09;;;;;;;2.70;0.85;;;;;;;;;;5069506;28;20195;-81
2021/10/03 06:33:34;;;;;;;7.50;1.92;;;;;;;;;;5088402;28;20176;-81
2021/10/03 06:36:00;;;;;;;4.75;1.35;;;;;;;;;;5090143;28;20625;-80
2021/10/03 06:38:25;;;;;;;6.47;1.25;;;;;;;;;;5093173;28;20196;-80
2021/10/03 06:40:50;;;;;;;4.28;0.90;;;;;;;;;;5092233;28;20652;-81
2021/10/03 06:43:15;;;;;;;3.30;1.02;;;;;;;;;;5092957;28;20184;-81
2021/10/03 06:45:41;;;;;;;6.97;1.07;;;;;;;;;;5089943;28;20196;-81
2021/10/03 06:48:10;;;;;;;5.03;0.90;;;;;;;;;;5091254;28;20857;-81
2021/10/03 06:50:35;;;;;;;5.70;2.25;;;;;;;;;;5091980;28;20200;-81
2021/10/03 06:53:00;;;;;;;4.32;0.80;;;;;;;;;;5092590;28;20707;-80
2021/10/03 06:55:25;;;;;;;5.97;1.73;;;;;;;;;;5089950;28;20549;-79
2021/10/03 06:57:51;;;;;;;4.78;1.15;;;;;;;;;;5094252;28;20172;-80
2021/10/03 07:00:16;;;;;;;4.78;1.05;;;;;;;;;;5075738;28;20553;-80
2021/10/03 07:02:42;;;;;;;5.63;1.00;;;;;;;;;;5093619;28;20635;-81
2021/10/03 07:05:08;;;;;;;3.28;0.95;;;;;;;;;;5093507;28;20665;-80
2021/10/03 07:07:33;;;;;;;4.18;1.10;;;;;;;;;;5094465;28;20204;-80
2021/10/03 07:09:58;;;;;;;2.67;1.20;;;;;;;;;;5092731;28;20215;-80
2021/10/03 07:12:23;;;;;;;4.60;0.90;;;;;;;;;;5094134;28;20175;-80
2021/10/03 07:14:48;;;;;;;5.78;0.90;;;;;;;;;;5076201;28;20164;-80
2021/10/03 07:17:14;;;;;;;3.80;0.93;;;;;;;;;;5075159;28;20187;-81
2021/10/03 07:19:39;;;;;;;4.47;1.40;;;;;;;;;;5062114;28;20200;-79
2021/10/03 07:22:05;;;;;;;3.92;0.82;;;;;;;;;;5065431;28;20179;-80
2021/10/03 07:24:30;;;;;;;3.78;1.25;;;;;;;;;;5065516;28;20248;-80
2021/10/03 07:26:56;;;;;;;3.08;1.20;;;;;;;;;;5067649;28;20290;-82
2021/10/03 07:29:21;;;;;;;5.32;1.13;;;;;;;;;;5067342;28;21630;-80
2021/10/03 07:31:46;;;;;;;3.67;1.05;;;;;;;;;;5064424;28;20173;-80
2021/10/03 07:34:11;;;;;;;7.43;1.13;;;;;;;;;;5076481;28;20189;-80
2021/10/03 07:36:37;;;;;;;4.28;1.02;;;;;;;;;;5053006;28;20203;-80
2021/10/03 07:39:02;;;;;;;1.90;0.80;;;;;;;;;;5087182;22;20240;-78
2021/10/03 07:41:27;;;;;;;1.58;0.77;;;;;;;;;;5090994;28;20210;-79
2021/10/03 07:43:54;;;;;;;2.90;0.98;;;;;;;;;;5098546;28;20222;-79
2021/10/03 07:46:19;;;;;;;2.17;0.73;;;;;;;;;;5075169;28;20202;-79
2021/10/03 07:48:44;;;;;;;3.10;0.90;;;;;;;;;;5085078;28;20288;-79
2021/10/03 07:51:10;;;;;;;8.80;2.08;;;;;;;;;;5093473;28;20175;-78
2021/10/03 07:53:35;;;;;;;5.05;2.28;;;;;;;;;;5077503;28;20168;-78
2021/10/03 07:56:01;;;;;;;5.18;1.90;;;;;;;;;;5093712;28;20570;-79
2021/10/03 07:58:26;;;;;;;4.97;2.20;;;;;;;;;;5093502;28;20214;-79
2021/10/03 08:00:51;;;;;;;4.22;2.15;;;;;;;;;;5092382;28;20176;-79
2021/10/03 08:03:16;;;;;;;1.52;1.30;;;;;;;;;;5093095;28;20270;-79
2021/10/03 08:05:42;;;;;;;2.72;1.90;;;;;;;;;;5098559;28;20183;-80
2021/10/03 08:08:08;;;;;;;3.80;1.60;;;;;;;;;;5076199;28;20190;-79
2021/10/03 08:10:34;;;;;;;3.83;0.93;;;;;;;;;;5073499;28;20237;-80
2021/10/03 08:12:59;;;;;;;2.75;0.90;;;;;;;;;;5075109;28;20636;-79
2021/10/03 08:15:27;;;;;;;2.28;0.90;;;;;;;;;;5094133;27;20180;-79
2021/10/03 08:17:52;;;;;;;1.98;0.70;;;;;;;;;;5074798;28;20176;-79
2021/10/03 08:20:18;;;;;;;1.58;1.02;;;;;;;;;;5095739;28;20209;-80
2021/10/03 08:22:43;;;;;;;1.33;0.80;;;;;;;;;;5093155;28;20167;-80
2021/10/03 08:25:09;;;;;;;1.60;1.00;;;;;;;;;;5093617;28;20203;-81
2021/10/03 08:27:35;;;;;;;2.08;1.05;;;;;;;;;;5074591;28;20190;-81
2021/10/03 08:30:00;;;;;;;1.83;0.70;;;;;;;;;;5093395;28;20556;-79
2021/10/03 08:32:25;;;;;;;1.88;0.75;;;;;;;;;;5103964;28;20168;-79
2021/10/03 08:34:50;;;;;;;0.98;0.60;;;;;;;;;;5115840;28;20552;-80
2021/10/03 08:37:16;;;;;;;1.52;0.80;;;;;;;;;;5118423;28;20365;-80
2021/10/03 08:39:42;;;;;;;2.75;0.90;;;;;;;;;;5117077;28;20207;-80
2021/10/03 08:42:07;;;;;;;1.52;0.70;;;;;;;;;;5116131;27;20190;-80
2021/10/03 08:44:32;;;;;;;1.73;0.80;;;;;;;;;;5119451;28;20187;-80
2021/10/03 08:46:57;;;;;;;1.48;0.60;;;;;;;;;;5101134;28;20179;-79
2021/10/03 08:49:23;;;;;;;13.63;3.10;;;;;;;;;;5125324;27;20751;-80
2021/10/03 08:51:48;;;;;;;3.20;0.90;;;;;;;;;;5098536;28;20185;-80
2021/10/03 08:54:16;;;;;;;1.55;0.57;;;;;;;;;;5117110;28;20566;-80
2021/10/03 08:56:42;;;;;;;2.80;0.70;;;;;;;;;;5097931;28;20180;-80
2021/10/03 08:59:07;;;;;;;2.35;0.50;;;;;;;;;;5116588;28;20238;-80
2021/10/03 09:01:46;;;;;;;2.47;0.50;;;;;;;;;;5097122;28;20183;-80
2021/10/03 09:04:23;;;;;;;2.85;0.55;;;;;;;;;;5092604;28;20183;-80
2021/10/03 09:07:07;;;;;;;2.78;1.05;;;;;;;;;;5098402;28;20177;-80
2021/10/03 09:09:50;;;;;;;2.30;0.82;;;;;;;;;;5115461;28;20210;-80
2021/10/03 09:12:25;;;;;;;2.05;0.60;;;;;;;;;;5091792;28;20164;-80
2021/10/03 09:14:50;;;;;;;3.47;0.70;;;;;;;;;;5116384;28;20174;-80
2021/10/03 09:17:18;;;;;;;0.60;0.40;;;;;;;;;;5115904;28;20667;-80
2021/10/03 09:20:02;;;;;;;1.50;0.63;;;;;;;;;;5097217;28;20430;-81
2021/10/03 09:22:27;;;;;;;1.23;0.68;;;;;;;;;;5090200;28;20188;-80
2021/10/03 09:24:52;;;;;;;2.15;0.70;;;;;;;;;;5091054;28;20187;-81
2021/10/03 09:27:18;;;;;;;1.70;0.82;;;;;;;;;;5073723;28;20652;-81
2021/10/03 09:29:43;;;;;;;2.70;0.87;;;;;;;;;;5090865;28;20243;-81
2021/10/03 09:32:08;;;;;;;1.58;0.60;;;;;;;;;;5092176;28;20424;-81
2021/10/03 09:34:33;;;;;;;1.60;0.75;;;;;;;;;;5077498;28;20226;-82
2021/10/03 09:37:14;;;;;;;1.73;0.63;;;;;;;;;;5097185;28;20544;-82
2021/10/03 09:39:42;;;;;;;1.27;0.90;;;;;;;;;;5092936;28;20690;-80
2021/10/03 09:42:17;;;;;;;2.15;0.50;;;;;;;;;;5093405;28;20305;-80
2021/10/03 09:45:01;;;;;;;1.75;0.73;;;;;;;;;;5099659;28;20187;-80
2021/10/03 09:47:27;;;;;;;2.17;0.77;;;;;;;;;;5090455;28;20676;-79
2021/10/03 09:49:53;;;;;;;2.47;0.90;;;;;;;;;;5090406;28;21691;-80
2021/10/03 09:52:18;;;;;;;2.97;0.80;;;;;;;;;;5072285;28;21081;-79
2021/10/03 09:54:44;;;;;;;3.38;0.70;;;;;;;;;;5090916;28;20179;-80
2021/10/03 09:57:09;;;;;;;1.30;0.70;;;;;;;;;;5089879;28;20179;-83
2021/10/03 09:59:34;;;;;;;1.38;1.08;;;;;;;;;;5074116;28;20196;-82
2021/10/03 10:02:00;;;;;;;1.63;1.00;;;;;;;;;;5092285;27;20176;-83
2021/10/03 10:04:26;;;;;;;2.10;1.15;;;;;;;;;;5099756;28;20179;-79
2021/10/03 10:06:51;;;;;;;1.92;0.93;;;;;;;;;;5104289;28;20279;-81
2021/10/03 10:09:18;;;;;;;2.13;1.00;;;;;;;;;;5086020;28;20652;-79
2021/10/03 10:11:49;;;;;;;1.95;0.80;;;;;;;;;;5127111;28;20176;-80
2021/10/03 10:14:15;;;;;;;2.40;0.90;;;;;;;;;;5124210;28;20172;-79
2021/10/03 10:16:46;;;;;;;2.20;0.75;;;;;;;;;;5126915;28;20209;-80
2021/10/03 10:19:32;;;;;;;1.50;0.68;;;;;;;;;;5124485;28;20195;-79
2021/10/03 10:22:12;;;;;;;1.40;0.65;;;;;;;;;;5121311;28;20186;-81
2021/10/03 10:24:48;;;;;;;2.00;0.65;;;;;;;;;;5119160;28;20179;-80
2021/10/03 10:27:28;;;;;;;3.00;0.68;;;;;;;;;;5117566;28;20171;-81
2021/10/03 10:29:57;;;;;;;2.58;0.90;;;;;;;;;;5102990;28;20195;-82
2021/10/03 10:32:23;;;;;;;2.58;0.77;;;;;;;;;;5109927;28;20171;-81
2021/10/03 10:35:06;;;;;;;1.58;0.80;;;;;;;;;;5115816;27;20195;-80
2021/10/03 10:37:54;;;;;;;0.60;0.60;;;;;;;;;;5110734;28;20640;-80
2021/10/03 10:40:22;;;;;;;2.67;0.90;;;;;;;;;;5098044;28;20215;-81
2021/10/03 10:42:48;;;;;;;2.45;0.90;;;;;;;;;;5116887;28;20210;-80
2021/10/03 10:45:26;;;;;;;2.38;1.20;;;;;;;;;;5114625;28;20176;-82
2021/10/03 10:48:06;;;;;;;2.58;1.00;;;;;;;;;;5117216;28;20197;-80
2021/10/03 10:50:32;;;;;;;4.00;1.13;;;;;;;;;;5109361;28;20564;-80
2021/10/03 10:53:14;;;;;;;3.85;0.90;;;;;;;;;;5111845;27;20174;-80
2021/10/03 10:55:40;;;;;;;3.15;1.00;;;;;;;;;;5100453;28;20568;-80
2021/10/03 10:58:06;;;;;;;2.53;1.23;;;;;;;;;;5118662;28;20183;-80
2021/10/03 11:00:32;;;;;;;2.22;1.30;;;;;;;;;;5117403;28;20215;-80
2021/10/03 11:02:57;;;;;;;4.93;1.52;;;;;;;;;;5116663;28;20202;-80
2021/10/03 11:05:34;;;;;;;4.80;1.35;;;;;;;;;;5116869;28;20668;-80
2021/10/03 11:08:26;;;;;;;3.33;1.40;;;;;;;;;;5111782;27;20419;-80
2021/10/03 11:10:57;;;;;;;3.08;2.45;;;;;;;;;;5110400;28;20255;-82
2021/10/03 11:13:40;;;;;;;3.13;2.05;;;;;;;;;;5112465;28;20325;-80
2021/10/03 11:16:25;;;;;;;4.93;2.08;;;;;;;;;;5113937;27;20186;-79
2021/10/03 11:18:56;;;;;;;4.85;1.45;;;;;;;;;;5108890;28;20211;-79
2021/10/03 11:21:30;;;;;;;4.53;1.40;;;;;;;;;;5121214;28;20179;-80
2021/10/03 11:23:57;;;;;;;3.45;1.70;;;;;;;;;;5116333;28;20202;-81
2021/10/03 11:26:23;;;;;;;2.70;1.30;;;;;;;;;;5117658;28;20180;-80
2021/10/03 11:28:48;;;;;;;3.83;1.17;;;;;;;;;;5113683;28;20193;-80
2021/10/03 11:31:14;;;;;;;3.13;1.70;;;;;;;;;;5115494;28;20299;-81
2021/10/03 11:33:46;;;;;;;3.90;1.20;;;;;;;;;;5094724;28;20215;-81
2021/10/03 11:36:11;;;;;;;1.85;1.05;;;;;;;;;;5113531;28;20263;-80
2021/10/03 11:38:46;;;;;;;1.70;1.15;;;;;;;;;;5113499;28;20285;-81
2021/10/03 11:41:11;;;;;;;1.58;0.77;;;;;;;;;;5116104;28;20178;-80
2021/10/03 11:43:36;;;;;;;1.27;1.17;;;;;;;;;;5092751;28;20175;-79
2021/10/03 11:46:08;;;;;;;4.50;1.50;;;;;;;;;;5110292;28;20173;-80
2021/10/03 11:48:33;;;;;;;2.70;1.88;;;;;;;;;;5119838;28;20194;-78
2021/10/03 11:50:58;;;;;;;2.00;1.80;;;;;;;;;;5122226;28;20195;-78
2021/10/03 11:53:28;;;;;;;3.53;2.05;;;;;;;;;;5119735;28;20180;-79
2021/10/03 11:56:05;;;;;;;3.92;2.65;;;;;;;;;;5122265;28;20175;-78
2021/10/03 11:58:34;;;;;;;3.25;2.15;;;;;;;;;;5122040;28;20175;-79
2021/10/03 12:01:05;;;;;;;2.05;1.70;;;;;;;;;;5117579;28;20187;-79
2021/10/03 12:03:32;;;;;;;2.80;1.90;;;;;;;;;;5114517;28;20245;-79
2021/10/03 12:05:57;;;;;;;2.38;2.15;;;;;;;;;;5114595;28;20202;-79
2021/10/03 12:08:23;;;;;;;3.78;1.75;;;;;;;;;;5107835;28;20183;-79
2021/10/03 12:10:53;;;;;;;2.53;2.10;;;;;;;;;;5100879;28;20286;-79
2021/10/03 12:13:20;;;;;;;3.20;2.65;;;;;;;;;;5085332;28;20175;-79
2021/10/03 12:15:45;;;;;;;2.67;1.98;;;;;;;;;;5100856;28;20172;-79
2021/10/03 12:18:12;;;;;;;4.20;2.13;;;;;;;;;;5104045;28;20180;-79
2021/10/03 12:20:49;;;;;;;2.92;1.85;;;;;;;;;;5107597;28;20281;-79
2021/10/03 12:23:16;;;;;;;2.03;1.80;;;;;;;;;;5105410;28;20193;-79
2021/10/03 12:25:41;;;;;;;3.42;1.80;;;;;;;;;;5111445;28;20183;-77
2021/10/03 12:28:06;;;;;;;2.92;1.45;;;;;;;;;;5114635;28;20340;-79
2021/10/03 12:30:48;;;;;;;2.85;1.20;;;;;;;;;;5105323;28;20274;-81
2021/10/03 12:33:14;;;;;;;2.65;1.23;;;;;;;;;;5107898;28;20239;-79
2021/10/03 12:35:39;;;;;;;4.68;1.20;;;;;;;;;;5106760;28;20202;-78
2021/10/03 12:38:05;;;;;;;2.08;1.50;;;;;;;;;;5113116;28;20240;-78
2021/10/03 12:40:30;;;;;;;3.22;1.65;;;;;;;;;;5114859;28;20233;-80
2021/10/03 12:42:57;;;;;;;2.47;1.10;;;;;;;;;;5117676;28;20210;-79
2021/10/03 12:45:22;;;;;;;1.92;1.23;;;;;;;;;;5128676;28;20203;-79
2021/10/03 12:47:47;;;;;;;2.10;1.30;;;;;;;;;;5120144;28;20555;-78
2021/10/03 12:50:12;;;;;;;2.25;1.10;;;;;;;;;;5121545;28;20203;-79
2021/10/03 12:52:38;;;;;;;2.33;1.13;;;;;;;;;;5118149;28;20556;-79
2021/10/03 12:55:03;;;;;;;0.82;0.77;;;;;;;;;;5120753;28;20225;-79
2021/10/03 12:57:28;;;;;;;0.60;0.60;;;;;;;;;;5115612;28;20171;-78
2021/10/03 12:59:54;;;;;;;1.15;0.50;;;;;;;;;;5117459;28;20206;-79
2021/10/03 13:02:19;;;;;;;1.25;0.68;;;;;;;;;;5114488;28;20176;-79
2021/10/03 13:04:44;;;;;;;2.63;1.85;;;;;;;;;;5113739;28;20172;-80
2021/10/03 13:07:09;;;;;;;1.15;0.40;;;;;;;;;;5114974;28;20199;-79
2021/10/03 13:09:34;;;;;;;1.75;0.50;;;;;;;;;;5098960;28;20191;-80
2021/10/03 13:12:00;;;;;;;0.90;0.45;;;;;;;;;;5114460;28;20191;-78
2021/10/03 13:14:25;;;;;;;2.08;0.70;;;;;;;;;;5117640;28;20175;-79
2021/10/03 13:16:51;;;;;;;0.80;0.60;;;;;;;;;;5113518;27;20191;-80
2021/10/03 13:19:17;;;;;;;1.17;0.90;;;;;;;;;;5109183;28;20673;-81
2021/10/03 13:21:42;;;;;;;1.20;0.80;;;;;;;;;;5106321;28;20187;-79
2021/10/03 13:24:07;;;;;;;0.85;0.70;;;;;;;;;;5104402;28;20674;-79
2021/10/03 13:26:33;;;;;;;4.35;1.00;;;;;;;;;;5106113;28;20211;-79
2021/10/03 13:28:58;;;;;;;0.68;0.60;;;;;;;;;;5102049;28;20192;-79
2021/10/03 13:31:23;;;;;;;3.10;1.15;;;;;;;;;;5107441;28;20183;-80
2021/10/03 13:33:48;;;;;;;2.13;0.82;;;;;;;;;;5106976;27;20632;-79
2021/10/03 13:36:14;;;;;;;1.80;1.02;;;;;;;;;;5107041;28;20172;-80
2021/10/03 13:41:07;;;;;;;1.35;0.60;;;;;;;;;;5055349;28;20224;-84
2021/10/03 13:43:33;;;;;;;1.00;0.50;;;;;;;;;;5059329;28;20178;-83
2021/10/03 13:45:58;;;;;;;1.85;0.70;;;;;;;;;;5040998;28;20170;-83
2021/10/03 13:48:24;;;;;;;1.70;0.60;;;;;;;;;;5065023;28;20177;-84
2021/10/03 13:50:49;;;;;;;1.80;0.82;;;;;;;;;;5061771;28;20662;-84
2021/10/03 13:53:14;;;;;;;2.00;1.00;;;;;;;;;;5045786;28;22362;-84
2021/10/03 13:55:39;;;;;;;1.65;0.88;;;;;;;;;;5062619;28;20180;-84
2021/10/03 13:58:05;;;;;;;0.90;0.80;;;;;;;;;;5062504;28;20578;-84
2021/10/03 14:00:31;;;;;;;1.30;0.90;;;;;;;;;;5061031;28;20200;-83
2021/10/03 14:02:56;;;;;;;2.58;0.90;;;;;;;;;;5049621;28;20186;-81
2021/10/03 14:05:22;;;;;;;1.38;0.85;;;;;;;;;;5057290;28;20201;-81
2021/10/03 14:07:48;;;;;;;1.70;1.27;;;;;;;;;;5060996;28;20227;-80
2021/10/03 14:10:15;;;;;;;1.67;0.75;;;;;;;;;;5049983;28;20216;-81
2021/10/03 14:12:41;;;;;;;2.47;1.30;;;;;;;;;;5063034;28;20814;-79
2021/10/03 14:15:07;;;;;;;1.33;1.10;;;;;;;;;;5070252;28;20173;-79
2021/10/03 14:17:32;;;;;;;3.28;2.20;;;;;;;;;;5064570;28;20854;-78
2021/10/03 14:19:57;;;;;;;2.25;1.70;;;;;;;;;;5062047;28;20389;-79
2021/10/03 14:22:22;;;;;;;2.00;1.00;;;;;;;;;;5057892;28;20973;-79
2021/10/03 14:24:47;;;;;;;1.08;0.82;;;;;;;;;;5049762;28;20429;-78
2021/10/03 14:27:13;;;;;;;0.98;0.80;;;;;;;;;;5047705;28;20296;-77
2021/10/03 14:29:38;;;;;;;2.97;1.00;;;;;;;;;;5042349;28;20242;-79
2021/10/03 14:32:03;;;;;;;0.98;0.90;;;;;;;;;;5051871;28;20438;-77
2021/10/03 14:34:29;;;;;;;3.42;1.17;;;;;;;;;;5066960;28;20177;-78
2021/10/03 14:36:54;;;;;;;0.98;0.98;;;;;;;;;;5072236;28;20244;-79
2021/10/03 14:39:19;;;;;;;1.45;0.80;;;;;;;;;;5069232;28;20218;-79
2021/10/03 14:41:45;;;;;;;1.33;0.70;;;;;;;;;;5054631;28;20180;-77